sensor_id;sensor_type;location;lat;lon;timestamp;pressure;altitude;pressure_sealevel;temperature;humidity
30110;BME280;14965;50.660;13.226;2023-07-31T00:00:41;94775.88;;;12.84;85.06
30110;BME280;14965;50.660;13.226;2023-07-31T00:03:07;94776.78;;;12.81;84.95
30110;BME280;14965;50.660;13.226;2023-07-31T00:05:33;94776.00;;;12.81;85.29
30110;BME280;14965;50.660;13.226;2023-07-31T00:08:00;94775.69;;;12.79;85.80
30110;BME280;14965;50.660;13.226;2023-07-31T00:10:26;94778.44;;;12.79;85.47
30110;BME280;14965;50.660;13.226;2023-07-31T00:12:52;94774.91;;;12.78;85.67
30110;BME280;14965;50.660;13.226;2023-07-31T00:15:18;94771.25;;;12.81;85.53
30110;BME280;14965;50.660;13.226;2023-07-31T00:17:44;94777.56;;;12.82;85.48
30110;BME280;14965;50.660;13.226;2023-07-31T00:20:11;94773.53;;;12.83;85.59
30110;BME280;14965;50.660;13.226;2023-07-31T00:22:37;94772.66;;;12.86;85.54
30110;BME280;14965;50.660;13.226;2023-07-31T00:25:04;94771.41;;;12.87;85.37
30110;BME280;14965;50.660;13.226;2023-07-31T00:27:30;94773.88;;;12.85;85.40
30110;BME280;14965;50.660;13.226;2023-07-31T00:29:56;94767.88;;;12.86;85.35
30110;BME280;14965;50.660;13.226;2023-07-31T00:32:22;94765.09;;;12.86;85.24
30110;BME280;14965;50.660;13.226;2023-07-31T00:34:48;94760.03;;;12.85;84.99
30110;BME280;14965;50.660;13.226;2023-07-31T00:37:14;94760.31;;;12.87;84.89
30110;BME280;14965;50.660;13.226;2023-07-31T00:39:41;94755.25;;;12.85;84.69
30110;BME280;14965;50.660;13.226;2023-07-31T00:42:08;94746.78;;;12.89;84.78
30110;BME280;14965;50.660;13.226;2023-07-31T00:44:34;94750.63;;;12.91;84.43
30110;BME280;14965;50.660;13.226;2023-07-31T00:47:01;94738.34;;;12.92;84.44
30110;BME280;14965;50.660;13.226;2023-07-31T00:49:27;94742.31;;;12.91;84.46
30110;BME280;14965;50.660;13.226;2023-07-31T00:51:54;94732.47;;;12.90;84.77
30110;BME280;14965;50.660;13.226;2023-07-31T00:54:20;94729.84;;;12.87;84.35
30110;BME280;14965;50.660;13.226;2023-07-31T00:56:46;94731.41;;;12.88;83.92
30110;BME280;14965;50.660;13.226;2023-07-31T00:59:14;94726.00;;;12.84;83.58
30110;BME280;14965;50.660;13.226;2023-07-31T01:01:40;94720.59;;;12.81;83.46
30110;BME280;14965;50.660;13.226;2023-07-31T01:04:07;94727.22;;;12.83;83.50
30110;BME280;14965;50.660;13.226;2023-07-31T01:06:38;94723.97;;;12.76;83.38
30110;BME280;14965;50.660;13.226;2023-07-31T01:09:14;94727.03;;;12.78;83.64
30110;BME280;14965;50.660;13.226;2023-07-31T01:11:52;94713.19;;;12.78;83.73
30110;BME280;14965;50.660;13.226;2023-07-31T01:14:20;94715.03;;;12.81;83.62
30110;BME280;14965;50.660;13.226;2023-07-31T01:16:46;94707.97;;;12.80;83.72
30110;BME280;14965;50.660;13.226;2023-07-31T01:19:14;94705.50;;;12.82;83.47
30110;BME280;14965;50.660;13.226;2023-07-31T01:21:52;94711.94;;;12.79;83.07
30110;BME280;14965;50.660;13.226;2023-07-31T01:24:29;94709.63;;;12.77;83.00
30110;BME280;14965;50.660;13.226;2023-07-31T01:27:06;94711.03;;;12.82;83.04
30110;BME280;14965;50.660;13.226;2023-07-31T01:29:44;94707.66;;;12.87;83.46
30110;BME280;14965;50.660;13.226;2023-07-31T01:32:13;94705.53;;;12.91;83.15
30110;BME280;14965;50.660;13.226;2023-07-31T01:34:41;94705.53;;;12.91;82.81
30110;BME280;14965;50.660;13.226;2023-07-31T01:37:07;94698.75;;;12.92;82.70
30110;BME280;14965;50.660;13.226;2023-07-31T01:39:33;94703.84;;;12.93;83.21
30110;BME280;14965;50.660;13.226;2023-07-31T01:42:01;94699.41;;;12.96;82.70
30110;BME280;14965;50.660;13.226;2023-07-31T01:44:27;94699.22;;;13.00;82.62
30110;BME280;14965;50.660;13.226;2023-07-31T01:46:53;94694.78;;;13.02;82.66
30110;BME280;14965;50.660;13.226;2023-07-31T01:49:18;94695.69;;;13.08;82.64
30110;BME280;14965;50.660;13.226;2023-07-31T01:51:44;94694.50;;;13.09;82.14
30110;BME280;14965;50.660;13.226;2023-07-31T01:54:10;94697.88;;;13.13;82.74
30110;BME280;14965;50.660;13.226;2023-07-31T01:56:36;94688.34;;;13.14;82.68
30110;BME280;14965;50.660;13.226;2023-07-31T01:59:04;94689.88;;;13.15;82.62
30110;BME280;14965;50.660;13.226;2023-07-31T02:01:30;94697.28;;;13.18;82.66
30110;BME280;14965;50.660;13.226;2023-07-31T02:03:56;94694.03;;;13.20;82.54
30110;BME280;14965;50.660;13.226;2023-07-31T02:06:22;94688.38;;;13.24;82.71
30110;BME280;14965;50.660;13.226;2023-07-31T02:08:48;94691.28;;;13.29;82.45
30110;BME280;14965;50.660;13.226;2023-07-31T02:11:14;94685.59;;;13.33;82.36
30110;BME280;14965;50.660;13.226;2023-07-31T02:13:39;94695.47;;;13.34;82.24
30110;BME280;14965;50.660;13.226;2023-07-31T02:16:07;94696.09;;;13.38;82.15
30110;BME280;14965;50.660;13.226;2023-07-31T02:18:33;94699.19;;;13.40;82.11
30110;BME280;14965;50.660;13.226;2023-07-31T02:20:59;94700.56;;;13.44;81.97
30110;BME280;14965;50.660;13.226;2023-07-31T02:23:25;94702.72;;;13.50;81.84
30110;BME280;14965;50.660;13.226;2023-07-31T02:25:51;94697.94;;;13.50;81.57
30110;BME280;14965;50.660;13.226;2023-07-31T02:28:17;94704.56;;;13.53;80.94
30110;BME280;14965;50.660;13.226;2023-07-31T02:30:45;94694.56;;;13.55;81.17
30110;BME280;14965;50.660;13.226;2023-07-31T02:33:12;94697.63;;;13.57;81.33
30110;BME280;14965;50.660;13.226;2023-07-31T02:35:38;94701.19;;;13.58;81.13
30110;BME280;14965;50.660;13.226;2023-07-31T02:38:04;94704.44;;;13.56;80.67
30110;BME280;14965;50.660;13.226;2023-07-31T02:40:30;94709.66;;;13.54;81.35
30110;BME280;14965;50.660;13.226;2023-07-31T02:42:56;94693.19;;;13.51;81.90
30110;BME280;14965;50.660;13.226;2023-07-31T02:45:22;94691.94;;;13.52;82.34
30110;BME280;14965;50.660;13.226;2023-07-31T02:47:48;94687.63;;;13.51;83.14
30110;BME280;14965;50.660;13.226;2023-07-31T02:50:15;94692.38;;;13.50;83.29
30110;BME280;14965;50.660;13.226;2023-07-31T02:52:41;94694.88;;;13.48;84.08
30110;BME280;14965;50.660;13.226;2023-07-31T02:55:07;94677.94;;;13.46;84.95
30110;BME280;14965;50.660;13.226;2023-07-31T02:57:33;94685.00;;;13.47;85.29
30110;BME280;14965;50.660;13.226;2023-07-31T02:59:59;94686.84;;;13.41;85.58
30110;BME280;14965;50.660;13.226;2023-07-31T03:02:25;94685.00;;;13.38;85.35
30110;BME280;14965;50.660;13.226;2023-07-31T03:04:51;94681.91;;;13.36;85.70
30110;BME280;14965;50.660;13.226;2023-07-31T03:07:19;94689.00;;;13.37;87.18
30110;BME280;14965;50.660;13.226;2023-07-31T03:09:45;94686.53;;;13.39;87.47
30110;BME280;14965;50.660;13.226;2023-07-31T03:12:11;94691.78;;;13.37;88.20
30110;BME280;14965;50.660;13.226;2023-07-31T03:14:37;94687.94;;;13.34;89.31
30110;BME280;14965;50.660;13.226;2023-07-31T03:17:03;94683.59;;;13.33;89.16
30110;BME280;14965;50.660;13.226;2023-07-31T03:19:31;94686.22;;;13.28;89.17
30110;BME280;14965;50.660;13.226;2023-07-31T03:21:57;94685.91;;;13.26;90.27
30110;BME280;14965;50.660;13.226;2023-07-31T03:24:24;94687.47;;;13.27;90.81
30110;BME280;14965;50.660;13.226;2023-07-31T03:26:50;94687.13;;;13.25;91.64
30110;BME280;14965;50.660;13.226;2023-07-31T03:29:16;94684.19;;;13.19;93.11
30110;BME280;14965;50.660;13.226;2023-07-31T03:31:42;94683.41;;;13.09;95.44
30110;BME280;14965;50.660;13.226;2023-07-31T03:34:08;94684.59;;;13.08;95.47
30110;BME280;14965;50.660;13.226;2023-07-31T03:36:34;94680.16;;;13.11;96.59
30110;BME280;14965;50.660;13.226;2023-07-31T03:39:00;94677.22;;;13.05;97.84
30110;BME280;14965;50.660;13.226;2023-07-31T03:41:27;94663.19;;;13.00;99.31
30110;BME280;14965;50.660;13.226;2023-07-31T03:43:53;94667.97;;;12.99;100.00
30110;BME280;14965;50.660;13.226;2023-07-31T03:46:19;94663.66;;;12.89;100.00
30110;BME280;14965;50.660;13.226;2023-07-31T03:48:45;94666.28;;;12.92;100.00
30110;BME280;14965;50.660;13.226;2023-07-31T03:51:11;94666.13;;;12.96;100.00
30110;BME280;14965;50.660;13.226;2023-07-31T03:53:37;94664.91;;;12.97;100.00
30110;BME280;14965;50.660;13.226;2023-07-31T03:56:03;94660.13;;;12.98;100.00
30110;BME280;14965;50.660;13.226;2023-07-31T03:58:31;94656.44;;;13.01;100.00
30110;BME280;14965;50.660;13.226;2023-07-31T04:00:57;94658.44;;;13.00;100.00
30110;BME280;14965;50.660;13.226;2023-07-31T04:03:22;94655.66;;;13.00;100.00
30110;BME280;14965;50.660;13.226;2023-07-31T04:05:48;94654.09;;;12.99;100.00
30110;BME280;14965;50.660;13.226;2023-07-31T04:08:14;94650.13;;;13.00;100.00
30110;BME280;14965;50.660;13.226;2023-07-31T04:10:40;94648.56;;;12.99;100.00
30110;BME280;14965;50.660;13.226;2023-07-31T04:13:06;94653.53;;;13.04;100.00
30110;BME280;14965;50.660;13.226;2023-07-31T04:15:33;94653.53;;;13.04;100.00
30110;BME280;14965;50.660;13.226;2023-07-31T04:17:59;94651.03;;;13.06;100.00
30110;BME280;14965;50.660;13.226;2023-07-31T04:20:25;94651.03;;;13.06;100.00
30110;BME280;14965;50.660;13.226;2023-07-31T04:22:51;94650.91;;;13.10;100.00
30110;BME280;14965;50.660;13.226;2023-07-31T04:25:17;94657.84;;;13.14;100.00
30110;BME280;14965;50.660;13.226;2023-07-31T04:27:43;94662.13;;;13.15;100.00
30110;BME280;14965;50.660;13.226;2023-07-31T04:30:10;94660.91;;;13.16;100.00
30110;BME280;14965;50.660;13.226;2023-07-31T04:32:37;94658.94;;;13.17;100.00
30110;BME280;14965;50.660;13.226;2023-07-31T04:35:04;94652.59;;;13.16;100.00
30110;BME280;14965;50.660;13.226;2023-07-31T04:37:30;94646.41;;;13.12;100.00
30110;BME280;14965;50.660;13.226;2023-07-31T04:39:56;94644.59;;;13.09;100.00
30110;BME280;14965;50.660;13.226;2023-07-31T04:42:23;94642.59;;;13.10;100.00
30110;BME280;14965;50.660;13.226;2023-07-31T04:44:49;94647.22;;;13.13;100.00
30110;BME280;14965;50.660;13.226;2023-07-31T04:47:15;94635.19;;;13.16;100.00
30110;BME280;14965;50.660;13.226;2023-07-31T04:49:42;94632.72;;;13.18;100.00
30110;BME280;14965;50.660;13.226;2023-07-31T04:52:08;94630.72;;;13.18;100.00
30110;BME280;14965;50.660;13.226;2023-07-31T04:54:34;94624.72;;;13.20;100.00
30110;BME280;14965;50.660;13.226;2023-07-31T04:57:00;94626.28;;;13.30;100.00
30110;BME280;14965;50.660;13.226;2023-07-31T04:59:26;94622.75;;;13.39;100.00
30110;BME280;14965;50.660;13.226;2023-07-31T05:01:52;94624.28;;;13.49;100.00
30110;BME280;14965;50.660;13.226;2023-07-31T05:04:18;94614.25;;;13.61;100.00
30110;BME280;14965;50.660;13.226;2023-07-31T05:06:45;94610.41;;;13.67;100.00
30110;BME280;14965;50.660;13.226;2023-07-31T05:09:11;94607.75;;;13.73;100.00
30110;BME280;14965;50.660;13.226;2023-07-31T05:11:37;94610.22;;;13.80;100.00
30110;BME280;14965;50.660;13.226;2023-07-31T05:14:03;94606.50;;;13.83;100.00
30110;BME280;14965;50.660;13.226;2023-07-31T05:16:29;94606.34;;;13.87;100.00
30110;BME280;14965;50.660;13.226;2023-07-31T05:18:55;94612.50;;;13.91;100.00
30110;BME280;14965;50.660;13.226;2023-07-31T05:21:21;94614.22;;;13.88;100.00
30110;BME280;14965;50.660;13.226;2023-07-31T05:23:49;94596.47;;;13.86;100.00
30110;BME280;14965;50.660;13.226;2023-07-31T05:26:15;94606.81;;;13.85;100.00
30110;BME280;14965;50.660;13.226;2023-07-31T05:28:41;94602.19;;;13.82;100.00
30110;BME280;14965;50.660;13.226;2023-07-31T05:31:07;94606.03;;;13.85;100.00
30110;BME280;14965;50.660;13.226;2023-07-31T05:33:33;94610.97;;;13.90;100.00
30110;BME280;14965;50.660;13.226;2023-07-31T05:35:59;94606.34;;;13.87;100.00
30110;BME280;14965;50.660;13.226;2023-07-31T05:38:25;94598.00;;;13.87;100.00
30110;BME280;14965;50.660;13.226;2023-07-31T05:40:53;94606.81;;;13.85;100.00
30110;BME280;14965;50.660;13.226;2023-07-31T05:43:19;94603.56;;;13.87;100.00
30110;BME280;14965;50.660;13.226;2023-07-31T05:45:45;94609.59;;;13.85;100.00
30110;BME280;14965;50.660;13.226;2023-07-31T05:48:10;94605.28;;;13.84;100.00
30110;BME280;14965;50.660;13.226;2023-07-31T05:50:36;94617.16;;;13.85;100.00
30110;BME280;14965;50.660;13.226;2023-07-31T05:53:02;94617.44;;;13.87;100.00
30110;BME280;14965;50.660;13.226;2023-07-31T05:55:28;94615.75;;;13.89;100.00
30110;BME280;14965;50.660;13.226;2023-07-31T05:57:56;94609.72;;;13.91;100.00
30110;BME280;14965;50.660;13.226;2023-07-31T06:00:22;94614.50;;;13.90;100.00
30110;BME280;14965;50.660;13.226;2023-07-31T06:02:48;94606.78;;;13.94;100.00
30110;BME280;14965;50.660;13.226;2023-07-31T06:05:14;94606.31;;;13.96;100.00
30110;BME280;14965;50.660;13.226;2023-07-31T06:07:40;94616.03;;;14.01;100.00
30110;BME280;14965;50.660;13.226;2023-07-31T06:10:07;94608.75;;;14.03;100.00
30110;BME280;14965;50.660;13.226;2023-07-31T06:12:34;94609.06;;;14.05;100.00
30110;BME280;14965;50.660;13.226;2023-07-31T06:15:03;94611.69;;;14.09;100.00
30110;BME280;14965;50.660;13.226;2023-07-31T06:17:29;94606.91;;;14.09;100.00
30110;BME280;14965;50.660;13.226;2023-07-31T06:19:56;94609.69;;;14.09;100.00
30110;BME280;14965;50.660;13.226;2023-07-31T06:22:23;94602.88;;;14.10;100.00
30110;BME280;14965;50.660;13.226;2023-07-31T06:24:49;94605.00;;;14.15;100.00
30110;BME280;14965;50.660;13.226;2023-07-31T06:27:15;94608.88;;;14.18;99.69
30110;BME280;14965;50.660;13.226;2023-07-31T06:29:40;94609.94;;;14.20;99.21
30110;BME280;14965;50.660;13.226;2023-07-31T06:32:08;94610.53;;;14.25;98.93
30110;BME280;14965;50.660;13.226;2023-07-31T06:34:34;94608.06;;;14.27;99.21
30110;BME280;14965;50.660;13.226;2023-07-31T06:37:00;94613.63;;;14.27;99.20
30110;BME280;14965;50.660;13.226;2023-07-31T06:39:26;94609.31;;;14.26;98.77
30110;BME280;14965;50.660;13.226;2023-07-31T06:41:52;94605.56;;;14.29;98.55
30110;BME280;14965;50.660;13.226;2023-07-31T06:44:18;94600.94;;;14.35;98.21
30110;BME280;14965;50.660;13.226;2023-07-31T06:46:44;94601.53;;;14.39;98.25
30110;BME280;14965;50.660;13.226;2023-07-31T06:49:11;94600.47;;;14.36;97.23
30110;BME280;14965;50.660;13.226;2023-07-31T06:51:37;94600.56;;;14.42;97.57
30110;BME280;14965;50.660;13.226;2023-07-31T06:54:03;94596.59;;;14.43;97.44
30110;BME280;14965;50.660;13.226;2023-07-31T06:56:29;94606.28;;;14.48;97.28
30110;BME280;14965;50.660;13.226;2023-07-31T06:58:55;94603.97;;;14.55;97.31
30110;BME280;14965;50.660;13.226;2023-07-31T07:01:21;94599.59;;;14.63;96.62
30110;BME280;14965;50.660;13.226;2023-07-31T07:03:47;94595.25;;;14.62;95.53
30110;BME280;14965;50.660;13.226;2023-07-31T07:06:14;94604.56;;;14.59;95.44
30110;BME280;14965;50.660;13.226;2023-07-31T07:08:40;94601.47;;;14.57;95.66
30110;BME280;14965;50.660;13.226;2023-07-31T07:11:06;94603.31;;;14.60;96.05
30110;BME280;14965;50.660;13.226;2023-07-31T07:13:32;94601.41;;;14.66;96.11
30110;BME280;14965;50.660;13.226;2023-07-31T07:15:58;94594.44;;;14.71;95.92
30110;BME280;14965;50.660;13.226;2023-07-31T07:18:24;94587.94;;;14.74;94.24
30110;BME280;14965;50.660;13.226;2023-07-31T07:20:51;94599.59;;;14.87;94.13
30110;BME280;14965;50.660;13.226;2023-07-31T07:23:20;94605.88;;;14.97;93.49
30110;BME280;14965;50.660;13.226;2023-07-31T07:25:46;94604.97;;;15.15;92.85
30110;BME280;14965;50.660;13.226;2023-07-31T07:28:13;94601.19;;;15.27;91.44
30110;BME280;14965;50.660;13.226;2023-07-31T07:30:40;94599.84;;;15.37;91.47
30110;BME280;14965;50.660;13.226;2023-07-31T07:33:06;94604.94;;;15.39;90.55
30110;BME280;14965;50.660;13.226;2023-07-31T07:35:33;94599.06;;;15.37;90.27
30110;BME280;14965;50.660;13.226;2023-07-31T07:37:59;94602.03;;;15.33;90.14
30110;BME280;14965;50.660;13.226;2023-07-31T07:40:26;94607.50;;;15.28;89.28
30110;BME280;14965;50.660;13.226;2023-07-31T07:42:52;94600.22;;;15.30;90.98
30110;BME280;14965;50.660;13.226;2023-07-31T07:45:18;94604.91;;;15.24;89.44
30110;BME280;14965;50.660;13.226;2023-07-31T07:47:44;94612.41;;;15.33;90.31
30110;BME280;14965;50.660;13.226;2023-07-31T07:50:10;94598.66;;;15.29;88.52
30110;BME280;14965;50.660;13.226;2023-07-31T07:52:36;94615.09;;;15.27;88.44
30110;BME280;14965;50.660;13.226;2023-07-31T07:55:03;94605.91;;;15.36;89.01
30110;BME280;14965;50.660;13.226;2023-07-31T07:57:31;94598.81;;;15.50;89.00
30110;BME280;14965;50.660;13.226;2023-07-31T07:59:57;94619.59;;;15.63;89.14
30110;BME280;14965;50.660;13.226;2023-07-31T08:02:23;94613.13;;;15.57;86.38
30110;BME280;14965;50.660;13.226;2023-07-31T08:04:49;94614.38;;;15.56;87.60
30110;BME280;14965;50.660;13.226;2023-07-31T08:07:15;94606.72;;;15.51;87.28
30110;BME280;14965;50.660;13.226;2023-07-31T08:09:41;94614.38;;;15.56;88.73
30110;BME280;14965;50.660;13.226;2023-07-31T08:12:07;94616.41;;;15.56;87.12
30110;BME280;14965;50.660;13.226;2023-07-31T08:14:35;94618.03;;;15.62;87.63
30110;BME280;14965;50.660;13.226;2023-07-31T08:17:02;94619.13;;;15.65;86.78
30110;BME280;14965;50.660;13.226;2023-07-31T08:19:27;94613.84;;;15.67;86.67
30110;BME280;14965;50.660;13.226;2023-07-31T08:21:53;94608.38;;;15.73;86.85
30110;BME280;14965;50.660;13.226;2023-07-31T08:24:19;94608.66;;;15.75;86.44
30110;BME280;14965;50.660;13.226;2023-07-31T08:26:45;94614.22;;;15.75;85.55
30110;BME280;14965;50.660;13.226;2023-07-31T08:29:12;94614.22;;;15.75;86.07
30110;BME280;14965;50.660;13.226;2023-07-31T08:31:39;94619.53;;;15.73;85.57
30110;BME280;14965;50.660;13.226;2023-07-31T08:34:05;94625.78;;;15.58;86.28
30110;BME280;14965;50.660;13.226;2023-07-31T08:36:31;94620.19;;;15.67;86.11
30110;BME280;14965;50.660;13.226;2023-07-31T08:38:57;94620.88;;;15.77;86.69
30110;BME280;14965;50.660;13.226;2023-07-31T08:41:23;94622.50;;;15.84;86.62
30110;BME280;14965;50.660;13.226;2023-07-31T08:43:50;94619.34;;;15.91;86.46
30110;BME280;14965;50.660;13.226;2023-07-31T08:46:18;94617.31;;;15.91;85.93
30110;BME280;14965;50.660;13.226;2023-07-31T08:48:47;94623.00;;;15.82;84.75
30110;BME280;14965;50.660;13.226;2023-07-31T08:51:14;94621.34;;;15.76;86.08
30110;BME280;14965;50.660;13.226;2023-07-31T08:53:40;94628.75;;;15.79;85.69
30110;BME280;14965;50.660;13.226;2023-07-31T08:56:07;94628.56;;;15.82;85.85
30110;BME280;14965;50.660;13.226;2023-07-31T08:58:34;94630.19;;;15.89;86.49
30110;BME280;14965;50.660;13.226;2023-07-31T09:01:03;94620.97;;;15.83;84.94
30110;BME280;14965;50.660;13.226;2023-07-31T09:03:34;94622.72;;;15.80;84.74
30110;BME280;14965;50.660;13.226;2023-07-31T09:06:02;94629.44;;;15.88;86.40
30110;BME280;14965;50.660;13.226;2023-07-31T09:08:31;94619.81;;;15.89;84.85
30110;BME280;14965;50.660;13.226;2023-07-31T09:10:59;94629.91;;;15.87;84.61
30110;BME280;14965;50.660;13.226;2023-07-31T09:13:27;94623.94;;;15.79;85.19
30110;BME280;14965;50.660;13.226;2023-07-31T09:15:53;94615.19;;;15.72;85.40
30110;BME280;14965;50.660;13.226;2023-07-31T09:18:19;94619.59;;;15.63;85.61
30110;BME280;14965;50.660;13.226;2023-07-31T09:20:45;94618.03;;;15.62;85.81
30110;BME280;14965;50.660;13.226;2023-07-31T09:23:14;94617.25;;;15.62;86.38
30110;BME280;14965;50.660;13.226;2023-07-31T09:25:43;94617.56;;;15.64;86.18
30110;BME280;14965;50.660;13.226;2023-07-31T09:28:11;94609.09;;;15.58;86.48
30110;BME280;14965;50.660;13.226;2023-07-31T09:30:47;94614.63;;;15.67;86.43
30110;BME280;14965;50.660;13.226;2023-07-31T09:33:13;94611.56;;;15.80;86.05
30110;BME280;14965;50.660;13.226;2023-07-31T09:35:39;94610.50;;;15.92;85.27
30110;BME280;14965;50.660;13.226;2023-07-31T09:38:07;94600.44;;;16.10;85.33
30110;BME280;14965;50.660;13.226;2023-07-31T09:40:37;94602.22;;;16.28;87.39
30110;BME280;14965;50.660;13.226;2023-07-31T09:43:05;94602.50;;;16.30;87.42
30110;BME280;14965;50.660;13.226;2023-07-31T09:45:35;94611.44;;;16.34;86.98
30110;BME280;14965;50.660;13.226;2023-07-31T09:48:01;94603.66;;;16.38;86.92
30110;BME280;14965;50.660;13.226;2023-07-31T09:50:27;94600.53;;;16.51;86.36
30110;BME280;14965;50.660;13.226;2023-07-31T09:52:53;94598.41;;;16.75;85.98
30110;BME280;14965;50.660;13.226;2023-07-31T09:55:19;94586.50;;;16.95;85.11
30110;BME280;14965;50.660;13.226;2023-07-31T09:57:48;94587.22;;;17.10;83.91
30110;BME280;14965;50.660;13.226;2023-07-31T10:00:18;94592.44;;;17.03;83.17
30110;BME280;14965;50.660;13.226;2023-07-31T10:02:46;94584.91;;;17.29;83.18
30110;BME280;14965;50.660;13.226;2023-07-31T10:05:14;94591.22;;;17.50;81.49
30110;BME280;14965;50.660;13.226;2023-07-31T10:07:43;94582.00;;;17.64;82.33
30110;BME280;14965;50.660;13.226;2023-07-31T10:10:12;94585.16;;;17.52;80.72
30110;BME280;14965;50.660;13.226;2023-07-31T10:12:41;94575.44;;;17.47;81.54
30110;BME280;14965;50.660;13.226;2023-07-31T10:15:11;94576.31;;;17.33;81.00
30110;BME280;14965;50.660;13.226;2023-07-31T10:17:38;94571.13;;;17.46;81.32
30110;BME280;14965;50.660;13.226;2023-07-31T10:20:07;94567.03;;;17.67;80.70
30110;BME280;14965;50.660;13.226;2023-07-31T10:22:35;94559.19;;;17.72;79.14
30110;BME280;14965;50.660;13.226;2023-07-31T10:25:02;94557.56;;;17.59;79.22
30110;BME280;14965;50.660;13.226;2023-07-31T10:27:29;94556.75;;;17.53;79.87
30110;BME280;14965;50.660;13.226;2023-07-31T10:29:57;94559.50;;;17.48;79.49
30110;BME280;14965;50.660;13.226;2023-07-31T10:32:26;94554.00;;;17.59;79.86
30110;BME280;14965;50.660;13.226;2023-07-31T10:34:53;94554.81;;;17.85;77.33
30110;BME280;14965;50.660;13.226;2023-07-31T10:37:24;94558.03;;;18.10;76.12
30110;BME280;14965;50.660;13.226;2023-07-31T10:39:59;94543.63;;;18.54;75.21
30110;BME280;14965;50.660;13.226;2023-07-31T10:42:32;94544.50;;;19.14;74.18
30110;BME280;14965;50.660;13.226;2023-07-31T10:45:00;94540.06;;;19.56;73.05
30110;BME280;14965;50.660;13.226;2023-07-31T10:47:28;94540.38;;;19.86;72.34
30110;BME280;14965;50.660;13.226;2023-07-31T10:50:12;94532.22;;;19.88;68.92
30110;BME280;14965;50.660;13.226;2023-07-31T10:52:38;94531.72;;;19.73;67.76
30110;BME280;14965;50.660;13.226;2023-07-31T10:55:26;94530.09;;;19.55;68.69
30110;BME280;14965;50.660;13.226;2023-07-31T10:57:53;94531.13;;;19.52;70.57
30110;BME280;14965;50.660;13.226;2023-07-31T11:00:22;94532.09;;;19.32;69.64
30110;BME280;14965;50.660;13.226;2023-07-31T11:03:07;94530.41;;;18.92;72.85
30110;BME280;14965;50.660;13.226;2023-07-31T11:05:51;94526.84;;;18.54;77.00
30110;BME280;14965;50.660;13.226;2023-07-31T11:08:19;94541.44;;;18.27;78.47
30110;BME280;14965;50.660;13.226;2023-07-31T11:10:47;94528.53;;;18.03;80.76
30110;BME280;14965;50.660;13.226;2023-07-31T11:13:14;94523.81;;;18.15;81.05
30110;BME280;14965;50.660;13.226;2023-07-31T11:15:40;94534.91;;;18.41;82.96
30110;BME280;14965;50.660;13.226;2023-07-31T11:18:07;94525.06;;;18.94;83.07
30110;BME280;14965;50.660;13.226;2023-07-31T11:20:34;94517.84;;;19.41;79.51
30110;BME280;14965;50.660;13.226;2023-07-31T11:23:02;94517.94;;;19.81;75.59
30110;BME280;14965;50.660;13.226;2023-07-31T11:25:29;94505.47;;;19.93;74.28
30110;BME280;14965;50.660;13.226;2023-07-31T11:27:55;94510.59;;;20.11;73.67
30110;BME280;14965;50.660;13.226;2023-07-31T11:30:21;94495.53;;;20.14;72.96
30110;BME280;14965;50.660;13.226;2023-07-31T11:32:47;94492.44;;;20.35;71.32
30110;BME280;14965;50.660;13.226;2023-07-31T11:35:14;94482.78;;;20.25;68.36
30110;BME280;14965;50.660;13.226;2023-07-31T11:37:42;94486.88;;;19.96;68.81
30110;BME280;14965;50.660;13.226;2023-07-31T11:40:10;94488.38;;;19.85;70.39
30110;BME280;14965;50.660;13.226;2023-07-31T11:42:36;94480.75;;;19.75;66.77
30110;BME280;14965;50.660;13.226;2023-07-31T11:45:03;94472.84;;;19.68;66.75
30110;BME280;14965;50.660;13.226;2023-07-31T11:47:32;94481.28;;;19.73;65.63
30110;BME280;14965;50.660;13.226;2023-07-31T11:49:58;94490.97;;;19.78;67.94
30110;BME280;14965;50.660;13.226;2023-07-31T11:52:27;94480.25;;;19.87;66.47
30110;BME280;14965;50.660;13.226;2023-07-31T11:54:55;94477.19;;;19.91;65.24
30110;BME280;14965;50.660;13.226;2023-07-31T11:57:21;94497.06;;;19.76;67.23
30110;BME280;14965;50.660;13.226;2023-07-31T11:59:48;94496.78;;;19.63;65.23
30110;BME280;14965;50.660;13.226;2023-07-31T12:04:42;94468.78;;;19.85;68.46
30110;BME280;14965;50.660;13.226;2023-07-31T12:07:08;94465.75;;;19.95;65.68
30110;BME280;14965;50.660;13.226;2023-07-31T12:09:36;94477.91;;;20.31;66.38
30110;BME280;14965;50.660;13.226;2023-07-31T12:12:02;94477.06;;;20.81;66.11
30110;BME280;14965;50.660;13.226;2023-07-31T12:14:28;94480.03;;;21.11;64.12
30110;BME280;14965;50.660;13.226;2023-07-31T12:16:54;94476.16;;;21.20;62.00
30110;BME280;14965;50.660;13.226;2023-07-31T12:19:21;94482.81;;;21.17;61.47
30110;BME280;14965;50.660;13.226;2023-07-31T12:21:47;94473.13;;;21.06;61.75
30110;BME280;14965;50.660;13.226;2023-07-31T12:24:12;94474.94;;;20.98;60.62
30110;BME280;14965;50.660;13.226;2023-07-31T12:26:40;94475.13;;;20.53;61.57
30110;BME280;14965;50.660;13.226;2023-07-31T12:29:07;94481.22;;;20.46;62.40
30110;BME280;14965;50.660;13.226;2023-07-31T12:31:34;94464.16;;;20.38;64.22
30110;BME280;14965;50.660;13.226;2023-07-31T12:34:00;94466.16;;;20.44;63.26
30110;BME280;14965;50.660;13.226;2023-07-31T12:36:25;94451.63;;;20.56;63.43
30110;BME280;14965;50.660;13.226;2023-07-31T12:38:52;94450.31;;;20.74;63.12
30110;BME280;14965;50.660;13.226;2023-07-31T12:41:19;94449.50;;;20.85;62.62
30110;BME280;14965;50.660;13.226;2023-07-31T12:43:46;94443.03;;;21.07;62.06
30110;BME280;14965;50.660;13.226;2023-07-31T12:46:12;94426.03;;;21.35;63.53
30110;BME280;14965;50.660;13.226;2023-07-31T12:48:39;94427.22;;;21.51;62.24